Silver Cliff, Colorado
Current Conditions -  °F | °C
As of 5:35 PM on Friday 31 Oct 2014 (Local Time) from K1V6 Reporting Station
Clear Clear  
Wind Chill: 52°   Ceiling: Unl
Heat Index: 52°   Visibility: 10mi
Dew Point: 30°   Wind: 0mph
Humidity: 44%   Direction: NA
Pressure: 30.2"   Gusts: NA
Location:  38.1037°N, 105.445°W
Report Text: K1V6 312335Z AUTO 00000KT 10SM CLR 11/M01 A3020 RMK AO2
Loading
Personal Weather Stations






























Interactive Weather Map
Tropical Storm Tracking
New forecast layout! Learn more

10-Day Weather Forecast

Advertisements
Track Severe Weather on mobile